Terminal Aerodrome Forecast
Issued by NWS Sioux Falls, SD

Home | Current Version | Previous Version | Text Only | Print | Product List | Glossary On
Versions: 1 2 3 4 5 6 7 8 9 10 11 12 13
000
FTUS43 KFSD 311142
TAFHON
TAF
KHON 311142Z 3112/0112 12007KT P6SM OVC200
     FM311600 14014G20KT P6SM SCT030 BKN100
      TEMPO 3117/3121 -SHRA BKN040
     FM010200 14011KT P6SM OVC060
     FM010700 15013KT P6SM OVC040=

USA.gov is the U.S. government's official web portal to all federal, state and local government web resources and services.